createdAt,value
2019-03-31T00:00:31.547Z,48.70
2019-03-31T00:03:05.491Z,47.50
2019-03-31T00:05:38.799Z,47.87
2019-03-31T00:08:12.634Z,43.30
2019-03-31T00:10:46.468Z,52.27
2019-03-31T00:13:20.043Z,55.77
2019-03-31T00:15:54.216Z,45.63
2019-03-31T00:18:28.146Z,54.88
2019-03-31T00:21:02.046Z,57.40
2019-03-31T00:23:36.666Z,52.57
2019-03-31T00:26:32.403Z,46.87
2019-03-31T00:29:06.353Z,51.87
2019-03-31T00:31:41.022Z,54.07
2019-03-31T00:34:15.403Z,62.03
2019-03-31T00:36:51.216Z,55.40
2019-03-31T00:39:27.128Z,49.57
2019-03-31T00:42:02.961Z,48.02
2019-03-31T00:44:37.175Z,47.03
2019-03-31T00:47:11.242Z,41.70
2019-03-31T00:49:45.847Z,47.70
2019-03-31T00:52:20.776Z,38.70
2019-03-31T00:54:55.199Z,37.93
2019-03-31T00:57:29.548Z,47.10
2019-03-31T01:00:05.381Z,46.70
2019-03-31T01:02:40.322Z,52.23
2019-03-31T01:05:14.722Z,50.85
2019-03-31T01:07:50.064Z,50.13
2019-03-31T01:10:24.317Z,60.87
2019-03-31T01:12:58.907Z,50.53
2019-03-31T01:15:35.197Z,41.57
2019-03-31T01:18:09.685Z,34.00
2019-03-31T01:20:43.514Z,43.23
2019-03-31T01:23:17.208Z,39.90
2019-03-31T01:25:51.883Z,38.23
2019-03-31T01:28:28.029Z,39.07
2019-03-31T01:31:02.374Z,46.00
2019-03-31T01:33:36.448Z,38.17
2019-03-31T01:36:10.574Z,38.13
2019-03-31T01:38:44.269Z,31.68
2019-03-31T01:41:19.403Z,25.60
2019-03-31T01:43:54.154Z,30.57
2019-03-31T01:46:33.024Z,39.13
2019-03-31T01:49:08.691Z,34.73
2019-03-31T01:51:45.276Z,38.35
2019-03-31T01:54:23.512Z,36.90
2019-03-31T01:56:58.799Z,22.50
2019-03-31T01:59:36.683Z,34.23
2019-03-31T02:02:14.309Z,41.67
2019-03-31T02:04:48.645Z,34.33
2019-03-31T02:07:23.888Z,33.10
2019-03-31T02:10:01.412Z,27.17
2019-03-31T02:12:36.179Z,28.83
2019-03-31T02:15:10.738Z,29.05
2019-03-31T02:17:46.500Z,28.17
2019-03-31T02:20:23.651Z,27.23
2019-03-31T02:22:58.627Z,34.73
2019-03-31T02:25:33.474Z,28.90
2019-03-31T02:28:10.658Z,37.40
2019-03-31T02:30:44.904Z,28.03
2019-03-31T02:33:19.277Z,29.73
2019-03-31T02:35:53.356Z,28.80
2019-03-31T02:38:27.742Z,29.87
2019-03-31T02:41:01.647Z,27.50
2019-03-31T02:43:37.560Z,27.70
2019-03-31T02:46:11.471Z,24.83
2019-03-31T02:48:46.456Z,24.57
2019-03-31T02:51:22.729Z,32.33
2019-03-31T02:53:58.922Z,20.50
2019-03-31T02:56:33.925Z,22.60
2019-03-31T02:59:07.849Z,21.70
2019-03-31T03:01:44.702Z,21.20
2019-03-31T03:04:20.411Z,20.20
2019-03-31T03:06:57.635Z,20.20
2019-03-31T03:09:33.604Z,23.43
2019-03-31T03:12:10.001Z,22.27
2019-03-31T03:14:44.527Z,16.93
2019-03-31T03:17:19.543Z,21.33
2019-03-31T03:19:53.736Z,20.35
2019-03-31T03:22:29.062Z,31.47
2019-03-31T03:25:03.826Z,30.33
2019-03-31T03:27:39.331Z,33.17
2019-03-31T03:30:14.174Z,31.82
2019-03-31T03:33:12.425Z,26.93
2019-03-31T03:35:22.380Z,27.10
2019-03-31T03:37:56.315Z,17.27
2019-03-31T03:40:30.106Z,19.00
2019-03-31T03:43:04.087Z,18.37
2019-03-31T03:45:37.605Z,15.97
2019-03-31T03:48:32.667Z,22.00
2019-03-31T03:50:51.778Z,19.53
2019-03-31T03:53:27.353Z,23.30
2019-03-31T03:56:02.766Z,15.48
2019-03-31T03:58:39.092Z,21.83
2019-03-31T04:01:13.685Z,23.10
2019-03-31T04:03:47.342Z,29.43
2019-03-31T04:06:21.068Z,18.30
2019-03-31T04:08:58.463Z,16.40
2019-03-31T04:11:36.747Z,20.00
2019-03-31T04:14:13.214Z,18.33
2019-03-31T04:16:52.953Z,21.20
2019-03-31T04:19:26.989Z,20.40
2019-03-31T04:22:11.822Z,15.43
2019-03-31T04:24:47.952Z,17.32
2019-03-31T04:27:22.824Z,32.33
2019-03-31T04:29:59.568Z,16.42
2019-03-31T04:32:38.535Z,13.40
2019-03-31T04:35:10.451Z,16.30
2019-03-31T04:37:46.262Z,13.37
2019-03-31T04:40:22.406Z,16.00
2019-03-31T04:43:02.130Z,17.25
2019-03-31T04:45:37.736Z,15.77
2019-03-31T04:48:20.801Z,11.90
2019-03-31T04:50:57.268Z,11.97
2019-03-31T04:53:32.008Z,16.47
2019-03-31T04:56:08.249Z,22.43
2019-03-31T04:58:48.924Z,18.57
2019-03-31T05:01:27.550Z,18.90
2019-03-31T05:04:07.516Z,16.63
2019-03-31T05:06:43.559Z,14.93
2019-03-31T05:09:18.112Z,18.73
2019-03-31T05:11:57.601Z,14.20
2019-03-31T05:14:33.170Z,13.87
2019-03-31T05:17:09.253Z,11.77
2019-03-31T05:19:44.242Z,23.73
2019-03-31T05:22:20.631Z,14.37
2019-03-31T05:25:04.155Z,22.48
2019-03-31T05:27:40.036Z,18.52
2019-03-31T05:30:15.002Z,15.20
2019-03-31T05:32:49.838Z,11.20
2019-03-31T05:35:27.180Z,11.30
2019-03-31T05:38:02.222Z,18.87
2019-03-31T05:40:38.055Z,20.03
2019-03-31T05:43:14.813Z,25.27
2019-03-31T05:45:52.322Z,22.93
2019-03-31T05:48:28.816Z,14.57
2019-03-31T05:51:03.029Z,13.28
2019-03-31T05:53:37.859Z,15.80
2019-03-31T05:56:17.160Z,13.07
2019-03-31T05:58:56.530Z,13.53
2019-03-31T06:01:33.181Z,13.77
2019-03-31T06:04:08.624Z,12.97
2019-03-31T06:06:51.939Z,14.07
2019-03-31T06:09:28.994Z,12.33
2019-03-31T06:12:10.290Z,13.50
2019-03-31T06:14:44.640Z,15.47
2019-03-31T06:17:20.630Z,13.73
2019-03-31T06:19:55.453Z,25.27
2019-03-31T06:22:32.622Z,15.90
2019-03-31T06:25:17.585Z,16.70
2019-03-31T06:27:57.935Z,16.87
2019-03-31T06:30:35.118Z,15.97
2019-03-31T06:33:13.633Z,14.33
2019-03-31T06:35:53.263Z,12.53
2019-03-31T06:38:28.873Z,16.87
2019-03-31T06:41:04.593Z,12.80
2019-03-31T06:43:39.705Z,17.42
2019-03-31T06:46:15.691Z,18.43
2019-03-31T06:48:52.529Z,15.07
2019-03-31T06:51:28.694Z,17.70
2019-03-31T06:54:05.213Z,11.83
2019-03-31T06:56:47.276Z,11.43
2019-03-31T06:59:23.617Z,17.27
2019-03-31T07:02:02.864Z,17.50
2019-03-31T07:04:38.483Z,13.53
2019-03-31T07:07:17.816Z,18.47
2019-03-31T07:09:52.403Z,19.43
2019-03-31T07:12:27.598Z,25.88
2019-03-31T07:15:05.665Z,27.37
2019-03-31T07:17:42.299Z,24.77
2019-03-31T07:20:19.119Z,20.77
2019-03-31T07:22:57.435Z,15.50
2019-03-31T07:25:36.950Z,16.60
2019-03-31T07:28:10.768Z,19.53
2019-03-31T07:30:49.579Z,23.50
2019-03-31T07:33:25.877Z,23.13
2019-03-31T07:36:02.483Z,17.25
2019-03-31T07:38:39.620Z,12.40
2019-03-31T07:41:15.488Z,17.00
2019-03-31T07:43:50.136Z,24.67
2019-03-31T07:46:25.354Z,13.60
2019-03-31T07:48:59.851Z,17.70
2019-03-31T07:51:37.347Z,13.57
2019-03-31T07:54:09.856Z,17.77
2019-03-31T07:56:45.348Z,20.27
2019-03-31T07:59:18.996Z,23.23
2019-03-31T08:01:53.041Z,33.02
2019-03-31T08:04:28.079Z,19.97
2019-03-31T08:07:02.536Z,19.50
2019-03-31T08:09:37.724Z,21.73
2019-03-31T08:12:11.798Z,19.07
2019-03-31T08:14:49.182Z,13.72
2019-03-31T08:17:23.303Z,19.13
2019-03-31T08:19:57.872Z,12.68
2019-03-31T08:22:33.427Z,20.23
2019-03-31T08:25:08.418Z,18.82
2019-03-31T08:27:42.332Z,16.43
2019-03-31T08:30:17.469Z,19.83
2019-03-31T08:32:51.114Z,11.84
2019-03-31T08:35:25.519Z,13.27
2019-03-31T08:37:59.253Z,17.07
2019-03-31T08:40:52.379Z,16.30
2019-03-31T08:43:25.637Z,18.63
2019-03-31T08:46:05.603Z,14.60
2019-03-31T08:48:39.465Z,14.85
2019-03-31T08:51:13.683Z,17.93
2019-03-31T08:53:48.017Z,17.10
2019-03-31T08:56:21.940Z,14.90
2019-03-31T08:58:55.775Z,15.33
2019-03-31T09:01:31.431Z,22.13
2019-03-31T09:04:06.178Z,29.33
2019-03-31T09:06:41.031Z,20.10
2019-03-31T09:09:15.068Z,19.60
2019-03-31T09:11:49.133Z,19.00
2019-03-31T09:14:24.201Z,17.00
2019-03-31T09:17:01.983Z,20.77
2019-03-31T09:19:36.910Z,18.97
2019-03-31T09:22:12.580Z,23.67
2019-03-31T09:24:46.782Z,15.37
2019-03-31T09:27:21.391Z,17.65
2019-03-31T09:29:55.605Z,15.97
2019-03-31T09:32:30.849Z,16.57
2019-03-31T09:35:06.134Z,25.27
2019-03-31T09:37:40.933Z,28.80
2019-03-31T09:40:22.687Z,19.87
2019-03-31T09:42:57.549Z,25.20
2019-03-31T09:45:32.617Z,22.93
2019-03-31T09:48:07.047Z,19.47
2019-03-31T09:50:42.719Z,17.30
2019-03-31T09:53:19.370Z,17.93
2019-03-31T09:55:54.102Z,24.33
2019-03-31T09:58:31.687Z,17.05
2019-03-31T10:01:08.044Z,20.07
2019-03-31T10:03:42.266Z,19.27
2019-03-31T10:06:29.558Z,18.40
2019-03-31T10:08:52.878Z,17.87
2019-03-31T10:11:27.966Z,21.97
2019-03-31T10:14:04.713Z,19.10
2019-03-31T10:16:39.777Z,24.60
2019-03-31T10:19:14.802Z,22.27
2019-03-31T10:21:49.467Z,24.97
2019-03-31T10:24:24.141Z,20.57
2019-03-31T10:26:59.677Z,24.47
2019-03-31T10:29:34.423Z,23.87
2019-03-31T10:32:09.444Z,22.93
2019-03-31T10:34:44.058Z,32.67
2019-03-31T10:37:18.622Z,24.37
2019-03-31T10:39:56.926Z,26.03
2019-03-31T10:42:31.865Z,29.20
2019-03-31T10:45:12.566Z,26.55
2019-03-31T10:47:47.943Z,29.87
2019-03-31T10:50:23.038Z,35.00
2019-03-31T10:52:57.815Z,27.47
2019-03-31T10:55:35.514Z,27.23
2019-03-31T10:58:11.029Z,29.32
2019-03-31T11:00:45.771Z,34.35
2019-03-31T11:03:20.932Z,30.93
2019-03-31T11:05:57.100Z,35.03
2019-03-31T11:08:33.435Z,33.00
2019-03-31T11:11:07.296Z,41.00
2019-03-31T11:13:42.211Z,38.55
2019-03-31T11:16:16.821Z,39.77
2019-03-31T11:19:10.953Z,37.73
2019-03-31T11:22:08.801Z,37.10
2019-03-31T11:24:43.660Z,37.23
2019-03-31T11:27:19.837Z,37.23
2019-03-31T11:29:57.563Z,41.40
2019-03-31T11:32:32.610Z,43.43
2019-03-31T11:35:08.677Z,38.63
2019-03-31T11:37:43.751Z,38.38
2019-03-31T11:40:18.348Z,37.80
2019-03-31T11:42:53.017Z,43.00
2019-03-31T11:45:27.633Z,39.50
2019-03-31T11:48:05.903Z,31.83
2019-03-31T11:50:41.228Z,40.10
2019-03-31T11:53:17.981Z,41.37
2019-03-31T11:55:54.818Z,38.13
2019-03-31T11:58:32.271Z,37.60
2019-03-31T12:01:08.241Z,40.15
2019-03-31T12:03:44.985Z,35.87
2019-03-31T12:06:20.086Z,32.87
2019-03-31T12:08:54.759Z,39.23
2019-03-31T12:11:30.597Z,32.57
2019-03-31T12:14:06.390Z,42.93
2019-03-31T12:16:42.363Z,38.17
2019-03-31T12:19:19.699Z,32.33
2019-03-31T12:22:03.679Z,39.58
2019-03-31T12:24:38.890Z,41.13
2019-03-31T12:27:14.988Z,37.50
2019-03-31T12:29:52.696Z,45.67
2019-03-31T12:32:33.357Z,37.17
2019-03-31T12:35:14.806Z,39.07
2019-03-31T12:37:50.379Z,38.27
2019-03-31T12:40:35.995Z,39.07
2019-03-31T12:43:15.922Z,44.00
2019-03-31T12:45:51.414Z,38.30
2019-03-31T12:48:26.963Z,36.38
2019-03-31T12:51:09.328Z,37.45
2019-03-31T12:53:46.604Z,39.13
2019-03-31T12:56:27.300Z,42.77
2019-03-31T12:59:04.071Z,39.57
2019-03-31T13:01:40.703Z,44.50
2019-03-31T13:04:17.005Z,37.23
2019-03-31T13:06:54.333Z,37.70
2019-03-31T13:09:36.986Z,43.30
2019-03-31T13:12:13.173Z,45.10
2019-03-31T13:14:52.307Z,42.43
2019-03-31T13:17:28.682Z,39.38
2019-03-31T13:20:06.335Z,39.07
2019-03-31T13:22:45.631Z,44.23
2019-03-31T13:25:21.077Z,38.70
2019-03-31T13:27:55.721Z,43.63
2019-03-31T13:30:31.200Z,39.97
2019-03-31T13:33:08.320Z,46.73
2019-03-31T13:35:44.083Z,38.27
2019-03-31T13:38:20.303Z,39.03
2019-03-31T13:40:56.640Z,43.17
2019-03-31T13:43:31.664Z,48.23
2019-03-31T13:46:08.062Z,41.90
2019-03-31T13:48:43.336Z,44.63
2019-03-31T13:51:19.907Z,43.47
2019-03-31T13:53:57.194Z,47.83
2019-03-31T13:56:32.964Z,37.95
2019-03-31T13:59:09.218Z,53.00
2019-03-31T14:01:45.052Z,41.42
2019-03-31T14:04:19.140Z,42.33
2019-03-31T14:06:53.429Z,39.93
2019-03-31T14:09:28.884Z,43.53
2019-03-31T14:12:02.988Z,43.77
2019-03-31T14:14:38.265Z,38.58
2019-03-31T14:17:13.586Z,42.63
2019-03-31T14:19:48.973Z,40.47
2019-03-31T14:22:22.798Z,44.63
2019-03-31T14:24:57.799Z,48.65
2019-03-31T14:27:31.894Z,43.98
2019-03-31T14:30:08.146Z,40.17
2019-03-31T14:32:42.465Z,39.63
2019-03-31T14:35:16.436Z,42.73
2019-03-31T14:37:50.138Z,41.50
2019-03-31T14:40:26.350Z,44.63
2019-03-31T14:43:00.099Z,48.77
2019-03-31T14:45:36.860Z,41.77
2019-03-31T14:48:12.381Z,44.50
2019-03-31T14:50:48.127Z,43.60
2019-03-31T14:53:23.085Z,52.47
2019-03-31T14:55:57.114Z,44.63
2019-03-31T14:58:30.817Z,46.70
2019-03-31T15:01:04.518Z,47.65
2019-03-31T15:03:38.504Z,52.00
2019-03-31T15:06:14.019Z,44.25
2019-03-31T15:08:54.309Z,46.70
2019-03-31T15:11:22.449Z,49.07
2019-03-31T15:13:56.512Z,44.30
2019-03-31T15:16:30.390Z,45.23
2019-03-31T15:19:10.469Z,61.47
2019-03-31T15:21:44.367Z,54.70
2019-03-31T15:24:18.166Z,45.93
2019-03-31T15:26:52.011Z,47.00
2019-03-31T15:29:25.450Z,47.90
2019-03-31T15:31:59.043Z,52.93
2019-03-31T15:34:32.885Z,49.73
2019-03-31T15:37:06.620Z,50.23
2019-03-31T15:39:40.122Z,49.63
2019-03-31T15:42:15.041Z,51.53
2019-03-31T15:44:48.698Z,52.63
2019-03-31T15:47:22.665Z,53.80
2019-03-31T15:49:56.424Z,51.83
2019-03-31T15:52:30.132Z,53.27
2019-03-31T15:55:05.062Z,49.80
2019-03-31T15:57:38.636Z,54.93
2019-03-31T16:00:14.596Z,58.30
2019-03-31T16:02:48.160Z,53.90
2019-03-31T16:05:21.791Z,51.80
2019-03-31T16:07:55.330Z,48.17
2019-03-31T16:10:32.400Z,59.47
2019-03-31T16:13:06.588Z,67.53
2019-03-31T16:15:39.959Z,79.03
2019-03-31T16:18:13.600Z,75.32
2019-03-31T16:20:46.767Z,78.30
2019-03-31T16:23:20.482Z,90.47
2019-03-31T16:25:54.128Z,77.93
2019-03-31T16:28:27.852Z,77.70
2019-03-31T16:31:01.767Z,73.23
2019-03-31T16:33:35.348Z,68.90
2019-03-31T16:36:09.185Z,64.90
2019-03-31T16:38:42.602Z,75.33
2019-03-31T16:41:16.146Z,65.70
2019-03-31T16:43:51.020Z,64.13
2019-03-31T16:46:24.978Z,59.50
2019-03-31T16:48:58.473Z,64.07
2019-03-31T16:51:31.912Z,56.97
2019-03-31T16:54:05.797Z,52.23
2019-03-31T16:56:39.269Z,58.87
2019-03-31T16:59:12.980Z,54.77
2019-03-31T17:01:46.447Z,49.38
2019-03-31T17:04:20.133Z,53.50
2019-03-31T17:06:53.911Z,58.20
2019-03-31T17:09:27.703Z,52.37
2019-03-31T17:12:01.486Z,47.13
2019-03-31T17:14:35.519Z,49.67
2019-03-31T17:17:09.183Z,54.00
2019-03-31T17:19:42.791Z,48.70
2019-03-31T17:22:16.302Z,51.75
2019-03-31T17:24:49.669Z,58.63
2019-03-31T17:27:22.919Z,55.48
2019-03-31T17:29:56.346Z,55.60
2019-03-31T17:32:30.068Z,54.33
2019-03-31T17:35:03.758Z,52.80
2019-03-31T17:37:37.522Z,53.87
2019-03-31T17:40:11.702Z,56.63
2019-03-31T17:42:45.286Z,56.07
2019-03-31T17:45:18.835Z,60.82
2019-03-31T17:47:52.477Z,74.53
2019-03-31T17:50:26.231Z,59.77
2019-03-31T17:53:03.679Z,48.17
2019-03-31T17:55:35.798Z,56.83
2019-03-31T17:58:09.181Z,52.37
2019-03-31T18:00:42.620Z,60.23
2019-03-31T18:03:16.163Z,55.93
2019-03-31T18:05:49.813Z,54.63
2019-03-31T18:08:23.457Z,61.47
2019-03-31T18:10:57.050Z,48.23
2019-03-31T18:13:30.909Z,49.00
2019-03-31T18:16:04.574Z,56.43
2019-03-31T18:18:38.891Z,53.85
2019-03-31T18:21:12.615Z,50.83
2019-03-31T18:23:46.102Z,57.33
2019-03-31T18:26:19.863Z,45.75
2019-03-31T18:28:53.479Z,54.17
2019-03-31T18:31:27.246Z,50.73
2019-03-31T18:34:01.061Z,53.87
2019-03-31T18:36:37.018Z,59.40
2019-03-31T18:39:10.349Z,50.87
2019-03-31T18:41:44.851Z,41.90
2019-03-31T18:44:18.389Z,48.87
2019-03-31T18:46:51.679Z,50.17
2019-03-31T18:49:25.426Z,60.30
2019-03-31T18:51:59.138Z,51.63
2019-03-31T18:54:32.813Z,44.07
2019-03-31T18:57:06.575Z,51.50
2019-03-31T18:59:41.985Z,48.20
2019-03-31T19:02:15.687Z,55.70
2019-03-31T19:04:50.695Z,46.35
2019-03-31T19:07:24.506Z,46.70
2019-03-31T19:09:58.277Z,50.40
2019-03-31T19:12:31.812Z,48.67
2019-03-31T19:15:05.278Z,55.57
2019-03-31T19:17:38.697Z,42.40
2019-03-31T19:20:12.298Z,46.37
2019-03-31T19:22:51.269Z,59.57
2019-03-31T19:25:24.992Z,40.90
2019-03-31T19:28:00.498Z,55.20
2019-03-31T19:30:34.356Z,62.73
2019-03-31T19:33:07.738Z,43.53
2019-03-31T19:35:41.398Z,49.10
2019-03-31T19:38:15.276Z,44.50
2019-03-31T19:41:02.984Z,67.33
2019-03-31T19:43:23.706Z,47.07
2019-03-31T19:45:57.262Z,52.87
2019-03-31T19:48:31.099Z,40.50
2019-03-31T19:51:06.064Z,41.13
2019-03-31T19:53:39.708Z,41.23
2019-03-31T19:56:13.361Z,40.93
2019-03-31T19:58:48.540Z,44.60
2019-03-31T20:01:22.483Z,42.67
2019-03-31T20:03:56.131Z,38.15
2019-03-31T20:06:30.054Z,43.17
2019-03-31T20:09:03.987Z,38.53
2019-03-31T20:11:37.532Z,41.85
2019-03-31T20:14:11.106Z,37.77
2019-03-31T20:16:45.527Z,43.60
2019-03-31T20:19:19.240Z,33.40
2019-03-31T20:21:52.856Z,33.95
2019-03-31T20:24:26.218Z,37.37
2019-03-31T20:26:59.902Z,41.18
2019-03-31T20:29:35.457Z,37.97
2019-03-31T20:32:09.040Z,39.80
2019-03-31T20:34:42.562Z,39.57
2019-03-31T20:37:17.111Z,38.77
2019-03-31T20:39:57.060Z,42.13
2019-03-31T20:42:26.086Z,35.73
2019-03-31T20:44:59.878Z,35.70
2019-03-31T20:47:33.474Z,45.13
2019-03-31T20:50:08.199Z,32.53
2019-03-31T20:52:42.025Z,35.73
2019-03-31T20:55:16.902Z,32.55
2019-03-31T20:57:50.692Z,31.02
2019-03-31T21:00:23.994Z,36.10
2019-03-31T21:02:57.777Z,35.30
2019-03-31T21:05:31.282Z,34.67
2019-03-31T21:08:05.099Z,25.77
2019-03-31T21:10:38.606Z,24.83
2019-03-31T21:13:12.184Z,30.23
2019-03-31T21:15:46.102Z,26.40
2019-03-31T21:18:19.655Z,30.13
2019-03-31T21:20:53.256Z,25.37
2019-03-31T21:23:26.687Z,30.57
2019-03-31T21:26:00.399Z,32.27
2019-03-31T21:28:33.900Z,34.00
2019-03-31T21:31:07.781Z,36.13
2019-03-31T21:33:41.537Z,33.70
2019-03-31T21:36:16.240Z,25.57
2019-03-31T21:38:49.834Z,29.63
2019-03-31T21:41:24.910Z,31.63
2019-03-31T21:44:00.253Z,31.13
2019-03-31T21:46:34.050Z,37.55
2019-03-31T21:49:07.652Z,32.10
2019-03-31T21:51:43.860Z,33.93
2019-03-31T21:54:17.328Z,32.90
2019-03-31T21:56:51.211Z,43.73
2019-03-31T21:59:25.167Z,31.20
2019-03-31T22:02:00.309Z,37.37
2019-03-31T22:04:35.445Z,36.93
2019-03-31T22:07:08.959Z,42.73
2019-03-31T22:09:42.694Z,35.67
2019-03-31T22:12:16.472Z,37.07
2019-03-31T22:14:50.275Z,30.10
2019-03-31T22:17:23.929Z,27.58
2019-03-31T22:19:57.609Z,34.93
2019-03-31T22:22:33.142Z,25.72
2019-03-31T22:25:07.574Z,27.73
2019-03-31T22:27:41.192Z,27.17
2019-03-31T22:30:14.824Z,25.48
2019-03-31T22:32:48.948Z,27.13
2019-03-31T22:35:22.687Z,28.97
2019-03-31T22:37:57.011Z,25.50
2019-03-31T22:40:33.255Z,27.50
2019-03-31T22:43:09.210Z,27.52
2019-03-31T22:45:41.956Z,27.27
2019-03-31T22:48:15.600Z,33.30
2019-03-31T22:50:50.811Z,30.27
2019-03-31T22:53:24.609Z,28.77
2019-03-31T22:55:59.570Z,34.83
2019-03-31T22:58:32.800Z,40.33
2019-03-31T23:01:06.393Z,29.30
2019-03-31T23:03:39.938Z,28.10
2019-03-31T23:06:16.312Z,24.23
2019-03-31T23:08:50.031Z,27.27
2019-03-31T23:11:23.757Z,28.00
2019-03-31T23:13:58.599Z,27.75
2019-03-31T23:16:38.970Z,28.87
2019-03-31T23:19:12.455Z,28.73
2019-03-31T23:21:47.376Z,27.80
2019-03-31T23:24:21.495Z,24.57
2019-03-31T23:27:14.857Z,33.00
2019-03-31T23:29:48.513Z,32.07
2019-03-31T23:32:22.316Z,24.90
2019-03-31T23:34:55.688Z,30.07
2019-03-31T23:37:29.428Z,28.53
2019-03-31T23:40:05.025Z,26.62
2019-03-31T23:42:38.725Z,19.30
2019-03-31T23:45:12.310Z,29.97
2019-03-31T23:47:45.990Z,26.30
2019-03-31T23:50:20.305Z,33.37
2019-03-31T23:52:54.109Z,30.13
2019-03-31T23:55:27.628Z,31.13
2019-03-31T23:58:00.915Z,35.67
